Time;durP1;ratioP1;P1;durP2;ratioP2;P2;SDS_P1;SDS_P2;PMS_P1;PMS_P2;Temp;Humidity;BMP_temperature;BMP_pressure;BME280_temperature;BME280_humidity;BME280_pressure;Samples;Min_cycle;Max_cycle;Signal;HPM_P1;HPM_P2
2022/08/11 00:00:00;;;;;;;6.35;4.47;;;;;;;-143.66;100.00;63766.88;5065214;28;20028;-64
2022/08/11 00:02:34;;;;;;;5.10;4.50;;;;;;;-143.66;100.00;63766.88;5060518;28;20592;-64
2022/08/11 00:05:09;;;;;;;6.43;4.53;;;;;;;-143.66;100.00;63766.88;5060400;28;20033;-64
2022/08/11 00:07:47;;;;;;;4.97;4.25;;;;;;;-143.66;100.00;63766.88;5065077;28;20534;-64
2022/08/11 00:10:17;;;;;;;6.25;4.90;;;;;;;-143.66;100.00;63766.88;5056962;28;20119;-64
2022/08/11 00:12:49;;;;;;;5.72;4.78;;;;;;;-143.66;100.00;63766.88;5063036;28;20119;-64
2022/08/11 00:15:15;;;;;;;7.15;4.93;;;;;;;-143.66;100.00;63766.88;5053433;28;20090;-64
2022/08/11 00:17:42;;;;;;;6.18;4.95;;;;;;;-143.66;100.00;63766.88;5062409;28;20047;-64
2022/08/11 00:20:13;;;;;;;7.13;4.70;;;;;;;-143.66;100.00;63766.88;5056377;28;20087;-64
2022/08/11 00:22:42;;;;;;;6.88;5.00;;;;;;;-143.66;100.00;63766.88;5063699;28;20092;-64
2022/08/11 00:25:12;;;;;;;5.80;5.03;;;;;;;-143.66;100.00;63766.88;5067434;28;20075;-64
2022/08/11 00:27:39;;;;;;;8.27;6.05;;;;;;;-143.66;100.00;63766.88;5045856;28;20491;-64
2022/08/11 00:30:10;;;;;;;6.95;5.97;;;;;;;-143.66;100.00;63766.88;5056997;28;20300;-64
2022/08/11 00:32:38;;;;;;;7.15;5.63;;;;;;;-143.66;100.00;63766.88;5058252;28;20666;-64
2022/08/11 00:35:07;;;;;;;7.53;6.45;;;;;;;-143.66;100.00;63766.88;5058148;28;20482;-64
2022/08/11 00:37:33;;;;;;;11.45;7.03;;;;;;;-143.66;100.00;63766.88;5064280;28;20036;-64
2022/08/11 00:40:01;;;;;;;7.50;6.68;;;;;;;-143.66;100.00;63766.88;5062130;28;20115;-64
2022/08/11 00:42:33;;;;;;;8.13;7.32;;;;;;;-143.66;100.00;63766.88;5062074;28;20036;-64
2022/08/11 00:45:20;;;;;;;8.50;7.05;;;;;;;-143.66;100.00;63766.88;5063272;28;20086;-64
2022/08/11 00:48:03;;;;;;;10.20;7.40;;;;;;;-143.66;100.00;63766.88;5063043;28;20104;-63
2022/08/11 00:50:59;;;;;;;8.60;7.70;;;;;;;-143.66;100.00;63766.88;5055864;28;20107;-64
2022/08/11 00:53:30;;;;;;;10.77;7.60;;;;;;;-143.66;100.00;63766.88;5067272;28;20032;-64
2022/08/11 00:56:30;;;;;;;10.63;8.18;;;;;;;-143.66;100.00;63766.88;5069414;28;20040;-64
2022/08/11 00:59:53;;;;;;;9.98;7.88;;;;;;;-143.66;100.00;63766.88;5061105;28;20101;-64
2022/08/11 01:02:22;;;;;;;10.43;8.57;;;;;;;-143.66;100.00;63766.88;4991179;28;20038;-64
2022/08/11 01:05:13;;;;;;;14.20;9.30;;;;;;;-143.66;100.00;63766.88;5043381;28;20036;-64
2022/08/11 01:08:15;;;;;;;11.20;9.02;;;;;;;-143.66;100.00;63766.88;5061055;28;20051;-64
2022/08/11 01:11:11;;;;;;;10.10;8.82;;;;;;;-143.66;100.00;63766.88;5061631;28;20041;-64
2022/08/11 01:13:51;;;;;;;10.20;8.98;;;;;;;-143.66;100.00;63766.88;5061380;28;20037;-64
2022/08/11 01:16:56;;;;;;;11.25;9.18;;;;;;;-143.66;100.00;63766.88;5061874;28;20107;-64
2022/08/11 01:19:50;;;;;;;12.95;8.68;;;;;;;-143.66;100.00;63766.88;5054637;28;20032;-64
2022/08/11 01:22:45;;;;;;;9.73;8.20;;;;;;;-143.66;100.00;63766.88;5057397;28;20040;-64
2022/08/11 01:25:29;;;;;;;11.45;9.40;;;;;;;-143.66;100.00;63766.88;5064832;28;20028;-64
2022/08/11 01:28:25;;;;;;;9.38;8.43;;;;;;;-143.66;100.00;63766.88;5066307;28;20075;-64
2022/08/11 01:31:35;;;;;;;9.18;7.85;;;;;;;-143.66;100.00;63766.88;5057420;28;20036;-64
2022/08/11 01:34:26;;;;;;;10.40;8.40;;;;;;;-143.66;100.00;63766.88;5042934;28;20040;-64
2022/08/11 01:37:02;;;;;;;8.98;8.07;;;;;;;-143.66;100.00;63766.88;5060081;28;20037;-64
2022/08/11 01:39:49;;;;;;;9.52;8.32;;;;;;;-143.66;100.00;63766.88;5054894;28;20417;-64
2022/08/11 01:45:43;;;;;;;8.30;7.32;;;;;;;-143.66;100.00;63766.88;5067356;28;20079;-64
2022/08/11 01:48:26;;;;;;;9.88;7.85;;;;;;;-143.66;100.00;63766.88;5058225;28;20037;-64
2022/08/11 01:51:10;;;;;;;9.18;8.10;;;;;;;-143.66;100.00;63766.88;5060475;28;20393;-64
2022/08/11 01:53:41;;;;;;;8.50;7.43;;;;;;;-143.66;100.00;63766.88;5062092;28;20446;-64
2022/08/11 01:56:48;;;;;;;8.90;7.85;;;;;;;-143.66;100.00;63766.88;5047111;28;20039;-64
2022/08/11 01:59:38;;;;;;;7.95;7.15;;;;;;;-143.66;100.00;63766.88;5052228;28;20764;-64
2022/08/11 02:02:44;;;;;;;8.45;7.22;;;;;;;-143.66;100.00;63766.88;5058328;28;20056;-64
2022/08/11 02:05:16;;;;;;;8.75;7.10;;;;;;;-143.66;100.00;63766.88;5051062;28;20045;-64
2022/08/11 02:08:02;;;;;;;8.10;7.00;;;;;;;-143.66;100.00;63766.88;5062203;28;20130;-64
2022/08/11 02:14:10;;;;;;;8.35;6.85;;;;;;;-143.66;100.00;63766.88;5059832;28;20033;-64
2022/08/11 02:16:46;;;;;;;7.25;6.43;;;;;;;-143.66;100.00;63766.88;5060932;28;20055;-64
2022/08/11 02:25:43;;;;;;;7.00;6.00;;;;;;;-143.66;100.00;63766.88;5030775;28;20056;-64
2022/08/11 02:28:22;;;;;;;7.32;6.20;;;;;;;-143.66;100.00;63766.88;5062287;28;20067;-64
2022/08/11 02:33:50;;;;;;;6.18;5.40;;;;;;;-143.66;100.00;63766.88;5059928;28;20093;-64
2022/08/11 02:36:23;;;;;;;7.25;5.95;;;;;;;-143.66;100.00;63766.88;5060935;28;20574;-64
2022/08/11 02:39:03;;;;;;;7.22;5.70;;;;;;;-143.66;100.00;63766.88;5058207;28;20402;-64
2022/08/11 02:44:49;;;;;;;7.88;5.80;;;;;;;-143.66;100.00;63766.88;5047417;28;19920;-64
2022/08/11 02:47:37;;;;;;;8.20;5.22;;;;;;;-143.66;100.00;63766.88;5065599;28;20044;-64
2022/08/11 02:50:25;;;;;;;5.65;5.05;;;;;;;-143.66;100.00;63766.88;5062680;28;20072;-64
2022/08/11 02:52:50;;;;;;;6.63;4.95;;;;;;;-143.66;100.00;63766.88;5062825;28;20150;-64
2022/08/11 02:55:30;;;;;;;6.28;5.10;;;;;;;-143.66;100.00;63766.88;5059940;28;20443;-64
2022/08/11 02:58:10;;;;;;;7.00;5.45;;;;;;;-143.66;100.00;63766.88;5073946;28;20044;-64
2022/08/11 03:00:46;;;;;;;;;;;;;;;-143.66;100.00;63766.88;5060450;28;20037;-64
2022/08/11 03:03:28;;;;;;;6.70;5.65;;;;;;;-143.66;100.00;63766.88;5067032;28;19985;-64
2022/08/11 03:06:18;;;;;;;6.22;5.20;;;;;;;-143.66;100.00;63766.88;5059668;28;20100;-64
2022/08/11 03:08:59;;;;;;;6.78;4.97;;;;;;;-143.66;100.00;63766.88;5062897;28;20511;-64
2022/08/11 03:18:10;;;;;;;5.50;4.85;;;;;;;-143.66;100.00;63766.88;5061912;28;20218;-64
2022/08/11 03:21:05;;;;;;;4.72;4.25;;;;;;;-143.66;100.00;63766.88;5043468;28;20048;-64
2022/08/11 03:23:40;;;;;;;5.18;4.55;;;;;;;-143.66;100.00;63766.88;5058106;28;20043;-64
2022/08/11 03:26:24;;;;;;;6.43;4.93;;;;;;;-143.66;100.00;63766.88;5069680;28;20745;-64
2022/08/11 03:28:56;;;;;;;5.60;4.63;;;;;;;-143.66;100.00;63766.88;5060723;28;20036;-64
2022/08/11 03:31:31;;;;;;;5.00;4.28;;;;;;;-143.66;100.00;63766.88;5060231;28;20560;-64
2022/08/11 03:34:04;;;;;;;6.07;4.50;;;;;;;-143.66;100.00;63766.88;5062391;28;20040;-64
2022/08/11 03:36:51;;;;;;;5.40;4.10;;;;;;;-143.66;100.00;63766.88;5060398;28;20056;-64
2022/08/11 03:39:29;;;;;;;5.78;4.13;;;;;;;-143.66;100.00;63766.88;5057787;28;20032;-64
2022/08/11 03:42:00;;;;;;;5.97;4.30;;;;;;;-143.66;100.00;63766.88;5066308;28;20549;-64
2022/08/11 03:45:05;;;;;;;6.15;4.35;;;;;;;-143.66;100.00;63766.88;5065399;28;20124;-64
2022/08/11 03:47:49;;;;;;;6.40;4.38;;;;;;;-143.66;100.00;63766.88;5066592;28;20479;-64
2022/08/11 03:50:18;;;;;;;5.72;4.70;;;;;;;-143.66;100.00;63766.88;5060641;28;20048;-64
2022/08/11 03:52:50;;;;;;;5.03;4.35;;;;;;;-143.66;100.00;63766.88;5067452;28;20743;-64
2022/08/11 03:55:25;;;;;;;4.93;4.18;;;;;;;-143.66;100.00;63766.88;5064949;28;20166;-64
2022/08/11 03:58:15;;;;;;;5.90;4.25;;;;;;;-143.66;100.00;63766.88;5073716;28;20699;-64
2022/08/11 04:01:06;;;;;;;6.05;4.45;;;;;;;-143.66;100.00;63766.88;5051720;28;20566;-64
2022/08/11 04:04:00;;;;;;;5.10;4.05;;;;;;;-143.66;100.00;63766.88;5056731;28;20036;-64
2022/08/11 04:07:07;;;;;;;6.15;4.70;;;;;;;-143.66;100.00;63766.88;5050736;28;20123;-64
2022/08/11 04:09:53;;;;;;;4.68;3.97;;;;;;;-143.66;100.00;63766.88;5061402;28;20075;-64
2022/08/11 04:12:41;;;;;;;4.70;4.05;;;;;;;-143.66;100.00;63766.88;5054511;28;20121;-64
2022/08/11 04:18:41;;;;;;;4.22;3.83;;;;;;;-143.66;100.00;63766.88;5061463;28;20048;-64
2022/08/11 04:21:19;;;;;;;9.23;4.32;;;;;;;-143.66;100.00;63766.88;5061523;28;20552;-64
2022/08/11 04:24:06;;;;;;;5.43;4.15;;;;;;;-143.66;100.00;63766.88;5064493;28;20024;-64
2022/08/11 04:26:56;;;;;;;5.53;4.07;;;;;;;-143.66;100.00;63766.88;5058319;28;20044;-64
2022/08/11 04:29:40;;;;;;;5.30;3.90;;;;;;;-143.66;100.00;63766.88;5060456;28;20036;-64
2022/08/11 04:32:30;;;;;;;4.78;4.00;;;;;;;-143.66;100.00;63766.88;5062248;28;20993;-64
2022/08/11 04:35:22;;;;;;;6.63;4.40;;;;;;;-143.66;100.00;63766.88;5054668;28;20039;-64
2022/08/11 04:37:53;;;;;;;5.13;3.97;;;;;;;-143.66;100.00;63766.88;5028402;28;20040;-64
2022/08/11 04:40:57;;;;;;;4.70;3.60;;;;;;;-143.66;100.00;63766.88;5063345;28;20040;-64
2022/08/11 04:43:56;;;;;;;5.50;4.13;;;;;;;-143.66;100.00;63766.88;5058685;28;20131;-64
2022/08/11 04:46:40;;;;;;;5.00;4.00;;;;;;;-143.66;100.00;63766.88;5059646;28;20632;-64
2022/08/11 05:02:28;;;;;;;5.28;3.80;;;;;;;-143.66;100.00;63766.88;5061832;28;20550;-64
2022/08/11 05:05:41;;;;;;;5.35;3.97;;;;;;;-143.66;100.00;63766.88;5056714;28;20059;-64
2022/08/11 05:08:24;;;;;;;3.92;3.53;;;;;;;-143.66;100.00;63766.88;5008819;28;20060;-64
2022/08/11 05:10:53;;;;;;;4.55;3.88;;;;;;;-143.66;100.00;63766.88;5058330;28;20051;-64
2022/08/11 05:37:08;;;;;;;4.70;3.75;;;;;;;-143.66;100.00;63766.88;5062011;28;20059;-64
2022/08/11 05:56:53;;;;;;;5.65;4.03;;;;;;;-143.66;100.00;63766.88;5056234;28;20040;-64
2022/08/11 05:59:21;;;;;;;6.57;4.13;;;;;;;-143.66;100.00;63766.88;5059560;28;20426;-64
2022/08/11 06:01:48;;;;;;;9.65;4.97;;;;;;;-143.66;100.00;63766.88;5062014;28;20124;-64
2022/08/11 06:04:22;;;;;;;4.40;3.63;;;;;;;-143.66;100.00;63766.88;5055514;28;20044;-64
2022/08/11 06:07:00;;;;;;;6.50;4.20;;;;;;;-143.66;100.00;63766.88;5059269;28;20043;-65
2022/08/11 06:09:36;;;;;;;7.38;4.60;;;;;;;-143.66;100.00;63766.88;5051433;28;20036;-63
2022/08/11 06:12:07;;;;;;;7.40;4.70;;;;;;;-143.66;100.00;63766.88;5057475;28;20028;-64
2022/08/11 06:14:40;;;;;;;8.18;4.65;;;;;;;-143.66;100.00;63766.88;5055177;28;20032;-64
2022/08/11 06:17:06;;;;;;;6.60;5.18;;;;;;;-143.66;100.00;63766.88;5066121;28;20417;-64
2022/08/11 06:19:40;;;;;;;6.18;4.22;;;;;;;-143.66;100.00;63766.88;5065712;28;20032;-64
2022/08/11 06:22:11;;;;;;;7.03;5.03;;;;;;;-143.66;100.00;63766.88;5062856;28;20043;-64
2022/08/11 06:24:40;;;;;;;6.40;4.57;;;;;;;-143.66;100.00;63766.88;5064082;28;20029;-64
2022/08/11 06:27:07;;;;;;;7.95;4.75;;;;;;;-143.66;100.00;63766.88;5061146;28;20101;-64
2022/08/11 06:29:40;;;;;;;9.57;5.50;;;;;;;-143.66;100.00;63766.88;5062338;28;20066;-64
2022/08/11 06:32:10;;;;;;;7.75;5.10;;;;;;;-143.66;100.00;63766.88;5064590;28;20055;-63
2022/08/11 06:35:05;;;;;;;7.30;4.90;;;;;;;-143.66;100.00;63766.88;5057766;28;20047;-63
2022/08/11 06:38:05;;;;;;;8.15;5.20;;;;;;;-143.66;100.00;63766.88;5066482;28;20044;-64
2022/08/11 06:40:30;;;;;;;6.53;5.10;;;;;;;-143.66;100.00;63766.88;5062962;28;20517;-64
2022/08/11 06:43:05;;;;;;;7.07;5.15;;;;;;;-143.66;100.00;63766.88;5059407;28;20036;-64
2022/08/11 06:45:49;;;;;;;8.52;5.00;;;;;;;-143.66;100.00;63766.88;5064580;28;20560;-64
2022/08/11 06:48:17;;;;;;;10.80;5.32;;;;;;;-143.66;100.00;63766.88;5061199;28;20044;-64
2022/08/11 06:53:33;;;;;;;7.57;5.68;;;;;;;-143.66;100.00;63766.88;5064585;28;20054;-63
2022/08/11 07:01:56;;;;;;;7.95;5.60;;;;;;;-143.66;100.00;63766.88;5057252;28;20075;-63
2022/08/11 07:04:42;;;;;;;7.65;5.50;;;;;;;-143.66;100.00;63766.88;5063586;28;20594;-64
2022/08/11 07:15:52;;;;;;;11.13;6.20;;;;;;;-143.66;100.00;63766.88;5054206;28;20072;-64
2022/08/11 07:29:43;;;;;;;6.78;4.68;;;;;;;-143.66;100.00;63766.88;5059134;28;20056;-64
2022/08/11 07:32:15;;;;;;;6.32;4.85;;;;;;;-143.66;100.00;63766.88;5063667;28;20455;-64
2022/08/11 07:34:47;;;;;;;6.43;4.22;;;;;;;-143.66;100.00;63766.88;5053998;28;20048;-64
2022/08/11 07:37:19;;;;;;;9.07;5.43;;;;;;;-143.66;100.00;63766.88;5058048;28;20036;-63
2022/08/11 07:39:47;;;;;;;9.20;5.28;;;;;;;-143.66;100.00;63766.88;5057410;28;20036;-63
2022/08/11 07:42:15;;;;;;;6.35;4.45;;;;;;;-143.66;100.00;63766.88;5060995;28;21015;-63
2022/08/11 07:52:58;;;;;;;6.35;4.82;;;;;;;-143.66;100.00;63766.88;5061909;28;20461;-63
2022/08/11 07:55:26;;;;;;;9.80;4.80;;;;;;;-143.66;100.00;63766.88;5055332;28;20029;-63
2022/08/11 08:17:50;;;;;;;6.65;4.55;;;;;;;-143.66;100.00;63766.88;5056657;28;20173;-63
2022/08/11 08:20:18;;;;;;;6.53;4.80;;;;;;;-143.66;100.00;63766.88;5062665;28;20486;-62
2022/08/11 08:22:49;;;;;;;5.25;4.20;;;;;;;-143.66;100.00;63766.88;5059549;28;20032;-63
2022/08/11 08:25:16;;;;;;;6.68;4.22;;;;;;;-143.66;100.00;63766.88;5055849;28;20032;-62
2022/08/11 08:27:44;;;;;;;7.22;4.82;;;;;;;-143.66;100.00;63766.88;5062669;28;20728;-63
2022/08/11 08:32:59;;;;;;;7.30;4.40;;;;;;;-143.66;100.00;63766.88;5059861;28;20040;-62
2022/08/11 08:35:25;;;;;;;5.35;4.20;;;;;;;-143.66;100.00;63766.88;5060291;28;20044;-63
2022/08/11 08:37:51;;;;;;;7.88;4.50;;;;;;;-143.66;100.00;63766.88;5059443;28;20414;-63
2022/08/11 08:40:17;;;;;;;8.73;4.88;;;;;;;-143.66;100.00;63766.88;5059316;28;20117;-63
2022/08/11 08:42:53;;;;;;;5.22;4.40;;;;;;;-143.66;100.00;63766.88;5055629;28;20391;-63
2022/08/11 08:45:20;;;;;;;6.47;4.38;;;;;;;-143.66;100.00;63766.88;5063855;28;20051;-63
2022/08/11 08:48:05;;;;;;;7.57;4.80;;;;;;;-143.66;100.00;63766.88;5061639;28;20466;-63
2022/08/11 08:53:30;;;;;;;8.82;4.50;;;;;;;-143.66;100.00;63766.88;5059669;28;20486;-63
2022/08/11 08:55:58;;;;;;;6.20;4.30;;;;;;;-143.66;100.00;63766.88;5058515;28;20046;-63
2022/08/11 08:58:25;;;;;;;10.13;4.68;;;;;;;-143.66;100.00;63766.88;5060742;28;20210;-63
2022/08/11 09:00:53;;;;;;;8.95;4.50;;;;;;;-143.66;100.00;63766.88;5057403;28;20043;-63
2022/08/11 09:03:19;;;;;;;7.93;4.28;;;;;;;-143.66;100.00;63766.88;5064067;28;20051;-63
2022/08/11 09:05:46;;;;;;;5.55;4.35;;;;;;;-143.66;100.00;63766.88;5061933;28;20068;-63
2022/08/11 09:08:13;;;;;;;7.75;4.40;;;;;;;-143.66;100.00;63766.88;5057973;28;20059;-63
2022/08/11 09:10:39;;;;;;;7.28;4.07;;;;;;;-143.66;100.00;63766.88;5062303;28;20504;-63
2022/08/11 09:13:07;;;;;;;5.05;3.88;;;;;;;-143.66;100.00;63766.88;5057660;28;20489;-63
2022/08/11 09:15:33;;;;;;;6.97;4.32;;;;;;;-143.66;100.00;63766.88;5061095;28;20052;-63
2022/08/11 09:18:08;;;;;;;5.22;4.35;;;;;;;-143.66;100.00;63766.88;5061735;28;20051;-63
2022/08/11 09:20:37;;;;;;;5.70;4.40;;;;;;;-143.66;100.00;63766.88;5060101;28;20032;-63
2022/08/11 09:28:47;;;;;;;5.90;3.90;;;;;;;-143.66;100.00;63766.88;5061610;28;20036;-63
2022/08/11 09:31:14;;;;;;;5.53;4.13;;;;;;;-143.66;100.00;63766.88;5052477;28;22114;-63
2022/08/11 09:33:42;;;;;;;7.93;4.43;;;;;;;-143.66;100.00;63766.88;5042628;28;20037;-63
2022/08/11 09:41:40;;;;;;;5.75;4.28;;;;;;;-143.66;100.00;63766.88;5058661;28;20765;-63
2022/08/11 09:46:56;;;;;;;9.25;4.63;;;;;;;-143.66;100.00;63766.88;5057981;28;20040;-63
2022/08/11 09:49:22;;;;;;;5.50;4.38;;;;;;;-143.66;100.00;63766.88;5058095;28;20037;-63
2022/08/11 09:51:49;;;;;;;7.10;4.47;;;;;;;-143.66;100.00;63766.88;5038883;28;20036;-63
2022/08/11 09:54:17;;;;;;;6.47;4.35;;;;;;;-143.66;100.00;63766.88;5059026;28;20051;-63
2022/08/11 09:59:27;;;;;;;8.00;4.15;;;;;;;-143.66;100.00;63766.88;5057467;28;20136;-63
2022/08/11 10:01:59;;;;;;;6.85;4.30;;;;;;;-143.66;100.00;63766.88;5061019;28;20040;-63
2022/08/11 10:04:33;;;;;;;8.93;4.32;;;;;;;-143.66;100.00;63766.88;5063262;28;20028;-63
2022/08/11 10:07:00;;;;;;;7.18;4.07;;;;;;;-143.66;100.00;63766.88;5049754;28;20043;-63
2022/08/11 10:09:41;;;;;;;5.88;3.97;;;;;;;-143.66;100.00;63766.88;5055046;28;20448;-62
2022/08/11 10:12:10;;;;;;;6.70;4.45;;;;;;;-143.66;100.00;63766.88;5061044;28;20041;-63
2022/08/11 10:18:40;;;;;;;7.07;4.43;;;;;;;-143.66;100.00;63766.88;5040792;28;20114;-63
2022/08/11 10:20:27;;;;;;;8.27;4.70;;;;;;;-143.66;100.00;63766.88;5060092;28;20038;-63
2022/08/11 10:28:23;;;;;;;8.27;4.78;;;;;;;-143.66;100.00;63766.88;5061571;28;20033;-63
2022/08/11 10:36:21;;;;;;;7.47;4.25;;;;;;;-143.66;100.00;63766.88;5056715;28;20628;-63
2022/08/11 10:38:50;;;;;;;9.55;4.70;;;;;;;-143.66;100.00;63766.88;5061936;28;20043;-63
2022/08/11 10:44:02;;;;;;;5.93;4.50;;;;;;;-143.66;100.00;63766.88;5061495;28;20135;-63
2022/08/11 10:49:12;;;;;;;5.38;3.78;;;;;;;-143.66;100.00;63766.88;5057563;28;20032;-62
2022/08/11 10:59:53;;;;;;;6.47;4.03;;;;;;;-143.66;100.00;63766.88;5059904;28;20073;-63
2022/08/11 11:02:20;;;;;;;6.75;4.10;;;;;;;-143.66;100.00;63766.88;5062369;28;20079;-63
2022/08/11 11:04:57;;;;;;;6.78;4.20;;;;;;;-143.66;100.00;63766.88;5060463;28;20072;-63
2022/08/11 11:07:30;;;;;;;7.28;4.00;;;;;;;-143.66;100.00;63766.88;5062846;28;20040;-63
2022/08/11 11:10:03;;;;;;;5.85;4.00;;;;;;;-143.66;100.00;63766.88;5058125;28;20166;-63
2022/08/11 11:18:34;;;;;;;5.75;4.20;;;;;;;-143.66;100.00;63766.88;5057427;28;20044;-63
2022/08/11 11:21:06;;;;;;;7.13;3.90;;;;;;;-143.66;100.00;63766.88;5059645;28;20592;-63
2022/08/11 11:23:40;;;;;;;6.53;4.32;;;;;;;-143.66;100.00;63766.88;5067136;28;20036;-63
2022/08/11 11:26:39;;;;;;;5.07;4.35;;;;;;;-143.66;100.00;63766.88;5059814;28;20845;-63
2022/08/11 11:29:42;;;;;;;5.28;4.13;;;;;;;-143.66;100.00;63766.88;5053526;28;20033;-63
2022/08/11 11:32:40;;;;;;;5.53;3.95;;;;;;;-143.66;100.00;63766.88;5061027;28;20039;-63
2022/08/11 11:35:14;;;;;;;6.03;3.80;;;;;;;-143.66;100.00;63766.88;5058767;28;20028;-63
2022/08/11 11:37:43;;;;;;;4.85;4.00;;;;;;;-143.66;100.00;63766.88;5064178;28;20064;-63
2022/08/11 11:40:14;;;;;;;7.55;4.78;;;;;;;-143.66;100.00;63766.88;5059228;28;20057;-63
2022/08/11 11:42:43;;;;;;;7.00;3.85;;;;;;;-143.66;100.00;63766.88;5065958;28;20068;-63
2022/08/11 11:45:10;;;;;;;6.38;4.40;;;;;;;-143.66;100.00;63766.88;5063320;28;20039;-63
2022/08/11 11:47:37;;;;;;;5.25;3.80;;;;;;;-143.66;100.00;63766.88;5065088;28;20103;-63
2022/08/11 11:50:06;;;;;;;5.00;3.88;;;;;;;-143.66;100.00;63766.88;5060029;28;20409;-63
2022/08/11 11:52:32;;;;;;;7.10;4.22;;;;;;;-143.66;100.00;63766.88;5058851;28;20032;-62
2022/08/11 11:54:59;;;;;;;5.53;3.92;;;;;;;-143.66;100.00;63766.88;5060877;28;20037;-63
2022/08/11 12:03:10;;;;;;;5.05;4.22;;;;;;;-143.66;100.00;63766.88;5005551;28;20074;-63
2022/08/11 12:05:36;;;;;;;;;;;;;;;-143.66;100.00;63766.88;5061160;28;20127;-63
2022/08/11 12:08:12;;;;;;;4.07;3.63;;;;;;;-143.66;100.00;63766.88;5054950;28;19973;-63
2022/08/11 12:10:39;;;;;;;5.15;4.03;;;;;;;-143.66;100.00;63766.88;5060741;28;20139;-63
2022/08/11 12:15:51;;;;;;;5.22;3.80;;;;;;;-143.66;100.00;63766.88;5054633;28;20040;-63
2022/08/11 12:18:17;;;;;;;5.63;4.03;;;;;;;-143.66;100.00;63766.88;5050934;28;20101;-63
2022/08/11 12:20:44;;;;;;;8.95;4.55;;;;;;;-143.66;100.00;63766.88;5040271;28;20060;-63
2022/08/11 12:28:43;;;;;;;5.00;3.65;;;;;;;-143.66;100.00;63766.88;5051889;28;20063;-63
2022/08/11 12:31:09;;;;;;;5.78;3.50;;;;;;;-143.66;100.00;63766.88;5058048;28;20059;-63
2022/08/11 12:33:40;;;;;;;7.05;4.13;;;;;;;-143.66;100.00;63766.88;5056558;28;20041;-63
2022/08/11 12:36:08;;;;;;;5.10;3.90;;;;;;;-143.66;100.00;63766.88;5055643;28;20718;-63
2022/08/11 12:38:34;;;;;;;8.73;3.90;;;;;;;-143.66;100.00;63766.88;5050586;28;21969;-63
2022/08/11 12:46:38;;;;;;;7.32;4.10;;;;;;;-143.66;100.00;63766.88;5062891;28;20378;-64
2022/08/11 12:52:00;;;;;;;7.32;4.00;;;;;;;-143.66;100.00;63766.88;5058491;28;20219;-64
2022/08/11 12:54:56;;;;;;;9.68;3.97;;;;;;;-143.66;100.00;63766.88;5056303;28;20048;-64
2022/08/11 13:05:48;;;;;;;7.28;4.13;;;;;;;-143.66;100.00;63766.88;5057361;28;20032;-64
2022/08/11 13:08:15;;;;;;;5.90;3.83;;;;;;;-143.66;100.00;63766.88;5056129;28;20062;-64
2022/08/11 13:13:27;;;;;;;6.70;3.88;;;;;;;-143.66;100.00;63766.88;5058144;28;20049;-64
2022/08/11 13:15:53;;;;;;;8.20;4.35;;;;;;;-143.66;100.00;63766.88;5057312;28;20525;-64
2022/08/11 13:18:22;;;;;;;7.07;4.25;;;;;;;-143.66;100.00;63766.88;5060545;28;20091;-64
2022/08/11 13:20:50;;;;;;;6.28;3.95;;;;;;;-143.66;100.00;63766.88;5059020;28;20044;-64
2022/08/11 13:23:16;;;;;;;8.93;4.23;;;;;;;-143.66;100.00;63766.88;5058645;28;20052;-64
2022/08/11 13:25:43;;;;;;;6.65;3.90;;;;;;;-143.66;100.00;63766.88;5057185;28;20075;-64
2022/08/11 13:28:11;;;;;;;7.25;4.10;;;;;;;-143.66;100.00;63766.88;5055729;28;20055;-64
2022/08/11 13:33:22;;;;;;;7.82;3.80;;;;;;;-143.66;100.00;63766.88;5054155;28;20479;-64
2022/08/11 13:35:50;;;;;;;5.68;3.67;;;;;;;-143.66;100.00;63766.88;5058668;28;20038;-64
2022/08/11 13:38:18;;;;;;;9.00;4.03;;;;;;;-143.66;100.00;63766.88;5053530;28;20466;-64
2022/08/11 13:40:45;;;;;;;4.90;3.88;;;;;;;-143.66;100.00;63766.88;5062216;28;20394;-64
2022/08/11 13:43:14;;;;;;;5.88;4.20;;;;;;;-143.66;100.00;63766.88;5060564;28;20055;-64
2022/08/11 13:45:41;;;;;;;5.43;3.60;;;;;;;-143.66;100.00;63766.88;5060146;28;20047;-64
2022/08/11 13:48:09;;;;;;;5.95;3.90;;;;;;;-143.66;100.00;63766.88;5057989;28;20782;-64
2022/08/11 13:53:24;;;;;;;5.68;3.63;;;;;;;-143.66;100.00;63766.88;5058729;28;20043;-64
2022/08/11 13:55:49;;;;;;;5.50;3.72;;;;;;;-143.66;100.00;63766.88;5055993;28;20172;-64
2022/08/11 13:58:16;;;;;;;6.60;3.65;;;;;;;-143.66;100.00;63766.88;5058793;28;20776;-64
2022/08/11 14:00:47;;;;;;;5.78;3.83;;;;;;;-143.66;100.00;63766.88;5060853;28;20036;-64
2022/08/11 14:03:13;;;;;;;9.43;4.07;;;;;;;-143.66;100.00;63766.88;5057601;28;20502;-64
2022/08/11 14:05:43;;;;;;;6.60;4.05;;;;;;;-143.66;100.00;63766.88;5050115;28;20421;-64
2022/08/11 14:08:13;;;;;;;5.18;3.60;;;;;;;-143.66;100.00;63766.88;5053119;28;20045;-64
2022/08/11 14:10:40;;;;;;;8.18;3.45;;;;;;;-143.66;100.00;63766.88;5059100;28;20841;-64
2022/08/11 14:16:03;;;;;;;3.92;3.30;;;;;;;-143.66;100.00;63766.88;5055874;28;20699;-64
2022/08/11 14:18:31;;;;;;;10.45;4.00;;;;;;;-143.66;100.00;63766.88;5053670;28;20052;-63
2022/08/11 14:23:49;;;;;;;4.60;3.63;;;;;;;-143.66;100.00;63766.88;5056330;28;20473;-65
2022/08/11 14:26:22;;;;;;;6.45;4.15;;;;;;;-143.66;100.00;63766.88;5056100;28;20223;-64
2022/08/11 14:28:52;;;;;;;6.38;3.78;;;;;;;-143.66;100.00;63766.88;5058477;28;20041;-64
2022/08/11 14:31:18;;;;;;;5.53;3.80;;;;;;;-143.66;100.00;63766.88;5060968;28;20048;-64
2022/08/11 14:33:44;;;;;;;6.18;3.53;;;;;;;-143.66;100.00;63766.88;5056079;28;20032;-64
2022/08/11 14:36:10;;;;;;;5.03;3.75;;;;;;;-143.66;100.00;63766.88;5055773;28;20095;-64
2022/08/11 14:38:39;;;;;;;7.40;3.72;;;;;;;-143.66;100.00;63766.88;5065472;28;20773;-64
2022/08/11 14:49:26;;;;;;;5.30;3.40;;;;;;;-143.66;100.00;63766.88;5057049;28;20041;-64
2022/08/11 14:51:56;;;;;;;6.70;3.58;;;;;;;-143.66;100.00;63766.88;5066052;28;20034;-64
2022/08/11 14:57:14;;;;;;;4.13;3.45;;;;;;;-143.66;100.00;63766.88;5061260;28;20041;-64
2022/08/11 14:59:42;;;;;;;4.63;3.40;;;;;;;-143.66;100.00;63766.88;5060616;28;20032;-64
2022/08/11 15:04:54;;;;;;;6.43;3.50;;;;;;;-143.66;100.00;63766.88;5063345;28;20052;-64
2022/08/11 15:07:28;;;;;;;6.95;3.85;;;;;;;-143.66;100.00;63766.88;5062167;28;20154;-64
2022/08/11 15:09:57;;;;;;;7.00;3.80;;;;;;;-143.66;100.00;63766.88;5065424;28;20474;-64
2022/08/11 15:12:23;;;;;;;6.05;3.90;;;;;;;-143.66;100.00;63766.88;5056394;28;20101;-64
2022/08/11 15:17:35;;;;;;;4.70;3.72;;;;;;;-143.66;100.00;63766.88;5061276;28;20044;-64
2022/08/11 15:25:38;;;;;;;5.70;3.55;;;;;;;-143.66;100.00;63766.88;5064874;28;20394;-64
2022/08/11 15:39:22;;;;;;;4.53;3.47;;;;;;;-143.66;100.00;63766.88;5059892;28;20047;-64
2022/08/11 15:47:58;;;;;;;6.70;3.95;;;;;;;-143.66;100.00;63766.88;5062875;28;20064;-65
2022/08/11 15:50:31;;;;;;;5.63;3.80;;;;;;;-143.66;100.00;63766.88;5063846;28;20042;-65
2022/08/11 15:53:02;;;;;;;5.38;3.50;;;;;;;-143.66;100.00;63766.88;5059145;28;20040;-65
2022/08/11 15:55:29;;;;;;;4.75;3.50;;;;;;;-143.66;100.00;63766.88;5065447;28;20561;-65
2022/08/11 16:06:19;;;;;;;6.90;3.92;;;;;;;-143.66;100.00;63766.88;5071010;28;20051;-65
2022/08/11 16:08:46;;;;;;;3.88;3.30;;;;;;;-143.66;100.00;63766.88;5060307;28;20568;-65
2022/08/11 16:11:13;;;;;;;5.70;3.50;;;;;;;-143.66;100.00;63766.88;5065769;28;20044;-65
2022/08/11 16:16:13;;;;;;;6.55;3.42;;;;;;;-143.66;100.00;63766.88;5065183;28;20020;-66
2022/08/11 16:18:47;;;;;;;5.15;3.35;;;;;;;-143.66;100.00;63766.88;5059435;28;20051;-65
2022/08/11 16:21:16;;;;;;;5.45;4.18;;;;;;;-143.66;100.00;63766.88;5069215;28;20036;-66
2022/08/11 16:23:45;;;;;;;4.50;3.33;;;;;;;-143.66;100.00;63766.88;5069007;28;20039;-65
2022/08/11 16:26:12;;;;;;;5.25;3.90;;;;;;;-143.66;100.00;63766.88;5071679;28;20036;-66
2022/08/11 16:28:43;;;;;;;4.40;3.42;;;;;;;-143.66;100.00;63766.88;5061897;28;20028;-65
2022/08/11 16:31:11;;;;;;;6.25;3.92;;;;;;;-143.66;100.00;63766.88;5072320;28;20839;-65
2022/08/11 16:33:39;;;;;;;6.97;4.75;;;;;;;-143.66;100.00;63766.88;5059510;28;20040;-65